Time;durP1;ratioP1;P1;durP2;ratioP2;P2;SDS_P1;SDS_P2;PMS_P1;PMS_P2;Temp;Humidity;BMP_temperature;BMP_pressure;BME280_temperature;BME280_humidity;BME280_pressure;Samples;Min_cycle;Max_cycle;Signal;HPM_P1;HPM_P2
2022/09/05 00:00:21;;;;;;;7.20;6.50;;;15.40;99.90;;;;;;4931437;29;20451;-84
2022/09/05 00:03:28;;;;;;;7.13;6.43;;;15.40;99.90;;;;;;4920001;29;20481;-83
2022/09/05 00:06:14;;;;;;;9.10;5.73;;;15.40;99.90;;;;;;4936129;29;20511;-82
2022/09/05 00:08:41;;;;;;;6.10;5.50;;;15.50;99.90;;;;;;4927821;29;20448;-81
2022/09/05 00:11:24;;;;;;;5.40;4.90;;;15.50;99.90;;;;;;4935680;29;20451;-84
2022/09/05 00:14:36;;;;;;;5.57;5.17;;;15.50;99.90;;;;;;4933256;29;20470;-85
2022/09/05 00:17:36;;;;;;;7.43;6.50;;;15.40;99.90;;;;;;4934966;29;20453;-84
2022/09/05 00:20:37;;;;;;;5.43;5.03;;;15.40;99.90;;;;;;4935409;29;20430;-81
2022/09/05 00:23:38;;;;;;;6.80;6.10;;;15.40;99.90;;;;;;4933481;29;20501;-80
2022/09/05 00:26:27;;;;;;;7.80;5.10;;;15.40;99.90;;;;;;4937580;29;20442;-80
2022/09/05 00:29:30;;;;;;;10.60;5.53;;;15.30;99.90;;;;;;4934549;29;20634;-81
2022/09/05 00:32:26;;;;;;;6.30;5.63;;;15.40;99.90;;;;;;4926519;29;20457;-81
2022/09/05 00:34:59;;;;;;;5.87;5.33;;;15.50;99.90;;;;;;4943776;29;20545;-82
2022/09/05 00:37:32;;;;;;;10.10;6.30;;;15.50;99.90;;;;;;4932988;29;20711;-81
2022/09/05 00:40:27;;;;;;;5.77;5.30;;;15.60;99.90;;;;;;4931137;29;20450;-85
2022/09/05 00:43:05;;;;;;;10.00;6.50;;;15.40;99.90;;;;;;4932111;29;20489;-83
2022/09/05 00:45:46;;;;;;;6.10;5.40;;;15.50;99.90;;;;;;4936575;29;20549;-80
2022/09/05 00:48:38;;;;;;;7.13;6.53;;;15.20;99.90;;;;;;4936347;29;20445;-78
2022/09/05 00:51:27;;;;;;;6.43;5.83;;;15.30;99.90;;;;;;4927225;29;20445;-85
2022/09/05 00:54:42;;;;;;;7.30;6.63;;;15.30;99.90;;;;;;4927303;29;20438;-82
2022/09/05 00:57:43;;;;;;;7.00;6.30;;;15.20;99.90;;;;;;4941123;29;20446;-82
2022/09/05 01:00:21;;;;;;;6.40;5.90;;;15.30;99.90;;;;;;4934739;29;20504;-79
2022/09/05 01:03:10;;;;;;;7.33;6.63;;;15.30;99.90;;;;;;4933748;29;20459;-81
2022/09/05 01:06:15;;;;;;;6.57;5.80;;;15.20;99.90;;;;;;4930132;29;20482;-81
2022/09/05 01:09:00;;;;;;;6.80;6.10;;;15.10;99.90;;;;;;4932500;29;20777;-82
2022/09/05 01:11:43;;;;;;;5.93;5.43;;;15.30;99.90;;;;;;4940071;29;20438;-85
2022/09/05 01:14:26;;;;;;;11.73;6.60;;;15.30;99.90;;;;;;4931372;29;20434;-80
2022/09/05 01:17:11;;;;;;;7.93;7.10;;;15.20;99.90;;;;;;4925892;29;20442;-81
2022/09/05 01:20:10;;;;;;;6.93;6.20;;;15.10;99.90;;;;;;4932079;29;20443;-83
2022/09/05 01:23:04;;;;;;;6.80;5.50;;;15.10;99.90;;;;;;4925298;29;20493;-83
2022/09/05 01:25:53;;;;;;;9.53;7.93;;;15.10;99.90;;;;;;4930718;29;20447;-80
2022/09/05 01:28:42;;;;;;;7.17;6.33;;;15.10;99.90;;;;;;4933462;29;20521;-83
2022/09/05 01:31:49;;;;;;;7.00;6.47;;;15.10;99.90;;;;;;4914704;29;20566;-82
2022/09/05 01:34:22;;;;;;;7.70;6.30;;;15.00;99.90;;;;;;4937305;29;20449;-80
2022/09/05 01:37:19;;;;;;;7.20;6.50;;;15.00;99.90;;;;;;4940870;29;20470;-80
2022/09/05 01:40:35;;;;;;;7.90;7.20;;;15.00;99.90;;;;;;4931749;29;20484;-81
2022/09/05 01:43:24;;;;;;;8.60;7.10;;;15.00;99.90;;;;;;4924827;29;20489;-81
2022/09/05 01:46:17;;;;;;;7.63;6.30;;;15.10;99.90;;;;;;4930076;29;20461;-83
2022/09/05 01:48:53;;;;;;;8.57;7.57;;;15.00;99.90;;;;;;4935537;29;20429;-82
2022/09/05 01:51:45;;;;;;;7.70;7.00;;;15.00;99.90;;;;;;4923313;29;20498;-82
2022/09/05 01:54:43;;;;;;;7.83;6.80;;;15.00;99.90;;;;;;4932801;29;20544;-81
2022/09/05 01:57:39;;;;;;;8.13;7.32;;;15.10;99.90;;;;;;4927310;29;20443;-81
2022/09/05 02:00:16;;;;;;;7.87;7.07;;;15.20;99.90;;;;;;4930881;29;20662;-85
2022/09/05 02:03:01;;;;;;;7.27;6.53;;;15.30;99.90;;;;;;4928983;29;20504;-79
2022/09/05 02:05:56;;;;;;;8.17;7.37;;;15.20;99.90;;;;;;4933566;29;20447;-84
2022/09/05 02:08:44;;;;;;;7.37;6.77;;;15.20;99.90;;;;;;4933385;29;21007;-80
2022/09/05 02:11:12;;;;;;;6.80;6.20;;;15.10;99.90;;;;;;4928900;29;20458;-79
2022/09/05 02:13:59;;;;;;;9.53;6.90;;;15.10;99.90;;;;;;4924262;29;20570;-79
2022/09/05 02:16:44;;;;;;;7.77;7.03;;;15.10;99.90;;;;;;4930055;29;20461;-81
2022/09/05 02:19:30;;;;;;;8.13;7.33;;;15.00;99.90;;;;;;4932433;29;20463;-80
2022/09/05 02:22:09;;;;;;;7.20;6.60;;;14.90;99.90;;;;;;4928741;29;20484;-87
2022/09/05 02:24:52;;;;;;;8.57;7.77;;;14.90;99.90;;;;;;4916758;29;20468;-82
2022/09/05 02:27:58;;;;;;;8.13;7.33;;;14.80;99.90;;;;;;4930864;29;20775;-80
2022/09/05 02:30:41;;;;;;;8.13;6.80;;;14.90;99.90;;;;;;4937095;29;20507;-82
2022/09/05 02:33:37;;;;;;;7.97;7.27;;;14.80;99.90;;;;;;4928861;29;20449;-81
2022/09/05 02:36:29;;;;;;;8.20;7.40;;;14.90;99.90;;;;;;4934492;29;20523;-80
2022/09/05 02:39:11;;;;;;;7.82;7.13;;;14.80;99.90;;;;;;4924817;29;20219;-80
2022/09/05 02:42:17;;;;;;;7.63;6.78;;;14.80;99.90;;;;;;4926866;29;20214;-79
2022/09/05 02:45:13;;;;;;;7.73;7.03;;;14.80;99.90;;;;;;4920198;29;20427;-81
2022/09/05 02:48:07;;;;;;;8.67;7.87;;;14.80;99.90;;;;;;4920872;29;20451;-79
2022/09/05 02:51:02;;;;;;;10.82;7.90;;;14.80;99.90;;;;;;4930487;29;20439;-82
2022/09/05 02:53:53;;;;;;;7.27;6.77;;;14.70;99.90;;;;;;4927637;29;20411;-81
2022/09/05 02:56:50;;;;;;;7.30;6.70;;;14.60;99.90;;;;;;4935825;29;20436;-80
2022/09/05 03:00:11;;;;;;;8.43;7.63;;;14.70;99.90;;;;;;4940899;29;20202;-81
2022/09/05 03:03:04;;;;;;;9.00;8.17;;;14.60;99.90;;;;;;4913640;29;20543;-79
2022/09/05 03:05:40;;;;;;;8.00;7.30;;;14.60;99.90;;;;;;4924738;29;20493;-82
2022/09/05 03:08:27;;;;;;;9.45;8.23;;;14.50;99.90;;;;;;4938237;29;20221;-77
2022/09/05 03:11:13;;;;;;;7.65;6.82;;;14.50;99.90;;;;;;4932419;29;20207;-81
2022/09/05 03:14:17;;;;;;;7.88;7.18;;;14.40;99.90;;;;;;4958782;29;20208;-81
2022/09/05 03:17:27;;;;;;;7.57;6.85;;;14.20;99.90;;;;;;4954061;29;20279;-82
2022/09/05 03:20:00;;;;;;;9.23;7.63;;;14.30;99.90;;;;;;4925914;29;20232;-80
2022/09/05 03:23:05;;;;;;;9.65;8.57;;;14.30;99.90;;;;;;4941898;29;20232;-79
2022/09/05 03:26:09;;;;;;;9.57;7.28;;;14.20;99.90;;;;;;4940624;29;20213;-79
2022/09/05 03:29:09;;;;;;;8.68;7.68;;;14.20;99.90;;;;;;4941626;29;20216;-83
2022/09/05 03:32:12;;;;;;;9.40;8.50;;;14.20;99.90;;;;;;4925687;29;20414;-79
2022/09/05 03:35:07;;;;;;;8.40;7.63;;;14.20;99.90;;;;;;4932757;29;20441;-79
2022/09/05 03:37:41;;;;;;;9.45;8.43;;;14.20;99.90;;;;;;4918289;29;20217;-81
2022/09/05 03:40:23;;;;;;;7.63;6.53;;;14.20;99.90;;;;;;4931667;29;20519;-84
2022/09/05 03:43:14;;;;;;;8.27;7.57;;;14.20;99.90;;;;;;4917922;29;20304;-80
2022/09/05 03:45:53;;;;;;;21.73;8.07;;;14.30;99.90;;;;;;4926096;29;20287;-80
2022/09/05 03:48:57;;;;;;;10.60;9.30;;;14.20;99.90;;;;;;4932624;29;20212;-81
2022/09/05 03:52:00;;;;;;;9.77;7.23;;;14.20;99.90;;;;;;4924882;29;20223;-81
2022/09/05 03:55:06;;;;;;;9.02;7.50;;;14.20;99.90;;;;;;4929794;29;20439;-81
2022/09/05 03:58:19;;;;;;;8.68;7.78;;;14.30;99.90;;;;;;4926088;29;20480;-82
2022/09/05 04:01:15;;;;;;;10.75;8.32;;;14.30;99.90;;;;;;4935954;29;20218;-80
2022/09/05 04:04:27;;;;;;;10.38;8.50;;;14.30;99.90;;;;;;4925446;29;20539;-79
2022/09/05 04:07:24;;;;;;;8.55;6.78;;;14.30;99.90;;;;;;4915036;29;20215;-79
2022/09/05 04:10:32;;;;;;;8.10;6.53;;;14.30;99.90;;;;;;4921425;29;20775;-80
2022/09/05 04:13:45;;;;;;;12.57;8.93;;;14.30;99.90;;;;;;4912669;29;20282;-83
2022/09/05 04:16:20;;;;;;;8.13;7.33;;;14.30;99.90;;;;;;4910853;29;20209;-81
2022/09/05 04:19:08;;;;;;;9.30;8.38;;;14.40;99.90;;;;;;4931655;29;20428;-80
2022/09/05 04:21:45;;;;;;;8.30;7.63;;;14.40;99.90;;;;;;4930555;29;20201;-78
2022/09/05 04:24:36;;;;;;;8.15;7.40;;;14.40;99.90;;;;;;4929277;29;20241;-83
2022/09/05 04:27:28;;;;;;;8.23;7.38;;;14.40;99.90;;;;;;4922097;29;20296;-79
2022/09/05 04:30:19;;;;;;;9.35;8.45;;;14.40;99.90;;;;;;4930743;29;20276;-79
2022/09/05 04:33:33;;;;;;;9.53;8.63;;;14.40;99.90;;;;;;4929341;29;20220;-82
2022/09/05 04:36:17;;;;;;;7.85;7.15;;;14.50;99.90;;;;;;4923491;29;20453;-79
2022/09/05 04:39:06;;;;;;;10.23;9.33;;;14.50;99.90;;;;;;4930906;29;20203;-78
2022/09/05 04:41:39;;;;;;;8.37;7.57;;;14.50;99.90;;;;;;4931631;29;20448;-82
2022/09/05 04:44:13;;;;;;;10.00;7.53;;;14.50;99.90;;;;;;4933880;29;20495;-81
2022/09/05 04:46:48;;;;;;;13.45;8.68;;;14.50;99.90;;;;;;4941151;29;20441;-82
2022/09/05 04:49:30;;;;;;;9.53;8.73;;;14.50;99.90;;;;;;4936695;29;20405;-83
2022/09/05 04:52:27;;;;;;;9.25;8.32;;;14.50;99.90;;;;;;4929539;29;20780;-81
2022/09/05 04:55:07;;;;;;;8.48;7.78;;;14.60;99.90;;;;;;4917587;29;20270;-80
2022/09/05 04:58:01;;;;;;;11.80;7.77;;;14.70;99.90;;;;;;4926457;29;20223;-81
2022/09/05 05:00:50;;;;;;;9.27;7.78;;;14.60;99.90;;;;;;4928093;29;20545;-83
2022/09/05 05:03:38;;;;;;;9.70;8.80;;;14.60;99.90;;;;;;4943209;29;20222;-80
2022/09/05 05:06:33;;;;;;;8.75;7.63;;;14.80;99.90;;;;;;4946240;29;20448;-78
2022/09/05 05:09:29;;;;;;;8.13;7.05;;;14.80;99.90;;;;;;4927782;29;20217;-84
2022/09/05 05:12:04;;;;;;;7.57;6.90;;;14.80;99.90;;;;;;4917654;29;20207;-85
2022/09/05 05:15:00;;;;;;;11.60;7.93;;;14.70;99.90;;;;;;4912422;29;20236;-83
2022/09/05 05:18:00;;;;;;;9.30;8.40;;;14.80;99.90;;;;;;4938062;29;20428;-82
2022/09/05 05:20:53;;;;;;;11.43;8.53;;;14.80;99.90;;;;;;4926656;29;20433;-81
2022/09/05 05:23:32;;;;;;;9.48;8.63;;;14.70;99.90;;;;;;4929021;29;20552;-81
2022/09/05 05:26:03;;;;;;;9.60;8.70;;;14.80;99.90;;;;;;4922996;29;20205;-81
2022/09/05 05:28:49;;;;;;;13.53;9.50;;;14.80;99.90;;;;;;4927047;29;20440;-82
2022/09/05 05:31:27;;;;;;;11.17;8.47;;;15.00;99.90;;;;;;4923014;29;20434;-84
2022/09/05 05:34:05;;;;;;;12.33;8.90;;;15.10;99.90;;;;;;4924010;29;20543;-82
2022/09/05 05:36:59;;;;;;;7.67;6.90;;;15.10;99.90;;;;;;4926150;29;20642;-80
2022/09/05 05:39:28;;;;;;;8.90;8.10;;;15.00;99.90;;;;;;4920685;29;21101;-80
2022/09/05 05:42:01;;;;;;;11.40;10.20;;;15.10;99.90;;;;;;4913123;29;20454;-82
2022/09/05 05:44:52;;;;;;;8.20;7.50;;;15.30;99.90;;;;;;4939257;29;20442;-85
2022/09/05 05:47:36;;;;;;;9.27;8.37;;;15.50;99.90;;;;;;4919151;29;20487;-83
2022/09/05 05:51:01;;;;;;;8.60;7.67;;;15.70;99.90;;;;;;4914544;29;20656;-82
2022/09/05 05:53:55;;;;;;;10.10;8.00;;;15.80;99.90;;;;;;4881035;29;20459;-82
2022/09/05 05:56:45;;;;;;;8.23;7.43;;;15.90;99.90;;;;;;4924628;29;20517;-80
2022/09/05 05:59:28;;;;;;;6.97;6.37;;;16.10;99.90;;;;;;4924817;29;20518;-81
2022/09/05 06:02:27;;;;;;;8.27;7.33;;;16.40;99.90;;;;;;4912524;29;20442;-85
2022/09/05 06:05:26;;;;;;;7.60;6.90;;;16.50;99.90;;;;;;4917271;29;20462;-79
2022/09/05 06:08:35;;;;;;;8.03;7.07;;;16.60;99.90;;;;;;4919859;29;21718;-81
2022/09/05 06:11:59;;;;;;;7.67;6.87;;;16.70;99.90;;;;;;4924598;29;20489;-84
2022/09/05 06:15:02;;;;;;;9.60;7.50;;;16.70;99.90;;;;;;4932278;29;20769;-83
2022/09/05 06:18:02;;;;;;;8.10;7.50;;;16.70;99.90;;;;;;4932246;29;20459;-87
2022/09/05 06:20:57;;;;;;;7.87;7.03;;;16.70;99.90;;;;;;4920785;29;20440;-81
2022/09/05 06:24:05;;;;;;;8.20;7.50;;;16.70;99.90;;;;;;4921019;29;20639;-86
2022/09/05 06:26:36;;;;;;;6.80;6.10;;;16.60;99.90;;;;;;4931008;29;20450;-83
2022/09/05 06:29:27;;;;;;;6.90;6.20;;;16.80;99.90;;;;;;4922337;29;20442;-83
2022/09/05 06:32:40;;;;;;;9.97;6.13;;;16.90;99.90;;;;;;4923561;29;20970;-83
2022/09/05 06:35:30;;;;;;;7.83;7.10;;;17.10;99.90;;;;;;4930006;29;20443;-85
2022/09/05 06:38:22;;;;;;;6.60;6.10;;;17.60;99.90;;;;;;4924040;29;20449;-83
2022/09/05 06:41:14;;;;;;;6.20;5.70;;;17.80;99.90;;;;;;4919949;29;20494;-82
2022/09/05 06:44:15;;;;;;;8.93;6.60;;;18.00;99.90;;;;;;4915535;29;20677;-84
2022/09/05 06:46:48;;;;;;;7.40;6.70;;;18.30;99.90;;;;;;4925118;29;20478;-88
2022/09/05 06:50:04;;;;;;;6.57;5.97;;;18.50;99.90;;;;;;4923860;29;20733;-87
2022/09/05 06:53:27;;;;;;;8.20;6.90;;;18.80;99.90;;;;;;4918565;29;20738;-84
2022/09/05 06:56:25;;;;;;;6.33;5.83;;;19.30;99.90;;;;;;4930395;29;21016;-86
2022/09/05 06:59:17;;;;;;;7.47;6.87;;;19.40;99.90;;;;;;4926778;29;20438;-84
2022/09/05 07:02:13;;;;;;;6.97;6.37;;;19.50;99.90;;;;;;4938422;29;20450;-85
2022/09/05 07:04:46;;;;;;;6.37;5.77;;;19.70;99.90;;;;;;4930617;29;20739;-83
2022/09/05 07:07:42;;;;;;;6.33;5.63;;;19.40;99.90;;;;;;4936350;29;20488;-83
2022/09/05 07:10:21;;;;;;;7.30;5.33;;;19.40;99.90;;;;;;4929638;29;20465;-82
2022/09/05 07:13:19;;;;;;;7.40;5.63;;;19.20;99.90;;;;;;4926217;29;20466;-85
2022/09/05 07:15:59;;;;;;;6.37;5.87;;;19.10;99.90;;;;;;4931268;29;20447;-81
2022/09/05 07:19:09;;;;;;;6.53;6.03;;;19.60;99.90;;;;;;4936181;29;20449;-85
2022/09/05 07:21:50;;;;;;;6.77;6.17;;;20.40;99.90;;;;;;4917764;29;20474;-85
2022/09/05 07:24:24;;;;;;;5.73;5.30;;;20.70;99.90;;;;;;4939223;29;20486;-85
2022/09/05 07:27:36;;;;;;;5.87;5.27;;;20.90;99.90;;;;;;4918374;29;20438;-81
2022/09/05 07:30:24;;;;;;;4.90;4.40;;;21.30;99.90;;;;;;4927177;29;20441;-83
2022/09/05 07:32:54;;;;;;;9.07;5.07;;;21.50;99.90;;;;;;4937139;29;20491;-82
2022/09/05 07:35:33;;;;;;;5.53;5.03;;;21.10;99.90;;;;;;4923341;29;20745;-85
2022/09/05 07:38:16;;;;;;;6.20;5.60;;;21.40;99.90;;;;;;4921566;29;20493;-81
2022/09/05 07:40:56;;;;;;;5.10;4.70;;;21.40;99.90;;;;;;4930651;29;20805;-81
2022/09/05 07:43:34;;;;;;;5.13;4.70;;;21.30;99.90;;;;;;4934121;29;20629;-82
2022/09/05 07:46:25;;;;;;;9.20;6.20;;;21.50;99.90;;;;;;4940915;29;20412;-86
2022/09/05 07:49:03;;;;;;;5.70;5.10;;;21.60;99.90;;;;;;4934146;29;20450;-82
2022/09/05 07:51:34;;;;;;;8.27;5.67;;;21.10;99.90;;;;;;4941147;29;20439;-83
2022/09/05 07:54:29;;;;;;;6.17;5.30;;;21.50;99.90;;;;;;4925113;29;20446;-79
2022/09/05 07:57:22;;;;;;;6.10;5.43;;;21.60;99.90;;;;;;4930637;29;20589;-81
2022/09/05 08:00:06;;;;;;;6.27;4.10;;;21.10;99.90;;;;;;4923099;29;20458;-81
2022/09/05 08:02:48;;;;;;;5.30;4.80;;;21.00;99.90;;;;;;4920926;29;20445;-79
2022/09/05 08:05:24;;;;;;;6.17;5.57;;;21.30;99.90;;;;;;4929310;29;20541;-81
2022/09/05 08:08:06;;;;;;;7.43;4.73;;;21.30;99.90;;;;;;4938047;29;20532;-78
2022/09/05 08:11:19;;;;;;;6.23;5.00;;;22.30;99.90;;;;;;4931541;29;20484;-82
2022/09/05 08:13:59;;;;;;;5.93;4.87;;;23.10;99.90;;;;;;4866464;29;20835;-82
2022/09/05 08:16:46;;;;;;;5.00;4.50;;;24.50;99.90;;;;;;4940502;29;20606;-79
2022/09/05 08:19:54;;;;;;;5.23;4.73;;;24.70;99.90;;;;;;4932742;29;20436;-82
2022/09/05 08:22:47;;;;;;;5.37;4.87;;;24.10;99.90;;;;;;4936976;29;20476;-86
2022/09/05 08:25:31;;;;;;;4.47;4.07;;;25.00;99.90;;;;;;4946272;29;20447;-82
2022/09/05 08:28:32;;;;;;;5.07;4.50;;;25.00;99.90;;;;;;4939489;29;20433;-85
2022/09/05 08:31:33;;;;;;;4.97;4.57;;;26.90;99.90;;;;;;4928532;29;20421;-82
2022/09/05 08:34:10;;;;;;;4.97;4.57;;;25.50;99.90;;;;;;4936033;29;20476;-83
2022/09/05 08:36:45;;;;;;;4.80;4.40;;;24.90;99.90;;;;;;4924084;29;20458;-82
2022/09/05 08:39:17;;;;;;;5.83;4.70;;;26.20;99.90;;;;;;4910928;29;20453;-83
2022/09/05 08:42:08;;;;;;;5.17;4.77;;;25.30;99.90;;;;;;4921619;29;20451;-84
2022/09/05 08:45:00;;;;;;;7.20;5.43;;;26.10;99.90;;;;;;4934549;29;20480;-82
2022/09/05 08:47:56;;;;;;;5.30;4.80;;;25.60;99.90;;;;;;4929578;29;20417;-86
2022/09/05 08:50:43;;;;;;;5.67;5.00;;;26.10;99.90;;;;;;4938314;29;20417;-84
2022/09/05 08:53:16;;;;;;;5.00;4.60;;;26.80;99.90;;;;;;4910447;29;20498;-86
2022/09/05 08:56:11;;;;;;;4.87;4.03;;;27.00;99.90;;;;;;4923559;29;20422;-82
2022/09/05 08:59:21;;;;;;;9.33;3.90;;;27.40;99.90;;;;;;4933272;29;20604;-83
2022/09/05 09:02:03;;;;;;;6.13;4.23;;;27.60;99.90;;;;;;4909533;29;20438;-80
2022/09/05 09:05:07;;;;;;;5.13;4.63;;;26.20;99.90;;;;;;4925080;29;20459;-82
2022/09/05 09:08:34;;;;;;;4.77;4.17;;;24.80;99.90;;;;;;4938816;29;20516;-83
2022/09/05 09:11:08;;;;;;;4.57;4.17;;;25.30;99.90;;;;;;4934466;29;20777;-82
2022/09/05 09:13:55;;;;;;;5.60;4.47;;;25.70;99.90;;;;;;4935455;29;20413;-81
2022/09/05 09:16:48;;;;;;;5.00;4.07;;;26.00;99.90;;;;;;4932797;29;20480;-83
2022/09/05 09:19:24;;;;;;;7.33;4.10;;;26.70;99.90;;;;;;4934442;29;20452;-83
2022/09/05 09:22:38;;;;;;;4.20;3.90;;;27.10;99.90;;;;;;4928718;29;20522;-84
2022/09/05 09:25:37;;;;;;;4.47;4.07;;;25.60;99.90;;;;;;4923123;29;20470;-84
2022/09/05 09:28:40;;;;;;;5.97;5.13;;;24.30;99.90;;;;;;4927976;29;20463;-84
2022/09/05 09:31:53;;;;;;;4.60;4.20;;;23.80;99.90;;;;;;4923329;29;20425;-85
2022/09/05 09:34:28;;;;;;;10.70;4.00;;;23.60;99.90;;;;;;4936413;29;20436;-85
2022/09/05 09:37:16;;;;;;;4.03;3.73;;;23.70;99.90;;;;;;4928144;29;20767;-83
2022/09/05 09:40:14;;;;;;;4.70;4.20;;;23.20;99.90;;;;;;4919810;29;20522;-86
2022/09/05 09:43:02;;;;;;;3.93;3.63;;;23.00;99.90;;;;;;4933027;29;20417;-85
2022/09/05 09:46:09;;;;;;;4.87;3.93;;;22.80;99.90;;;;;;4925559;29;21071;-86
2022/09/05 09:49:26;;;;;;;4.50;4.10;;;22.60;99.90;;;;;;4928302;29;20501;-80
2022/09/05 09:52:01;;;;;;;4.50;4.10;;;22.30;99.90;;;;;;4923882;29;20473;-85
2022/09/05 09:54:58;;;;;;;5.30;3.93;;;22.40;99.90;;;;;;4916024;29;20450;-84
2022/09/05 09:58:02;;;;;;;3.93;3.63;;;22.80;99.90;;;;;;4929416;29;20449;-83
2022/09/05 10:00:49;;;;;;;4.13;3.80;;;22.90;99.90;;;;;;4915791;29;20642;-82
2022/09/05 10:03:51;;;;;;;4.80;4.30;;;22.80;99.90;;;;;;4933648;29;20559;-82
2022/09/05 10:07:16;;;;;;;5.37;3.47;;;22.50;99.90;;;;;;4938868;29;20409;-81
2022/09/05 10:10:52;;;;;;;3.97;3.60;;;22.70;99.90;;;;;;4924009;29;20435;-84
2022/09/05 10:14:29;;;;;;;5.17;3.33;;;22.80;99.90;;;;;;4926565;29;20446;-81
2022/09/05 10:17:36;;;;;;;3.17;2.87;;;23.00;99.90;;;;;;4909626;29;20462;-82
2022/09/05 10:20:40;;;;;;;4.27;3.80;;;23.00;99.90;;;;;;4921935;29;20806;-85
2022/09/05 10:23:32;;;;;;;3.07;2.80;;;23.20;99.90;;;;;;4925009;29;20435;-83
2022/09/05 10:26:22;;;;;;;5.33;3.70;;;23.30;99.90;;;;;;4932741;29;20614;-84
2022/09/05 10:29:05;;;;;;;3.10;2.90;;;23.20;99.90;;;;;;4925304;29;20462;-82
2022/09/05 10:31:57;;;;;;;4.07;3.23;;;22.80;99.90;;;;;;4919387;29;20434;-81
2022/09/05 10:34:53;;;;;;;2.90;2.70;;;22.50;99.90;;;;;;4926900;29;20425;-84
2022/09/05 10:37:48;;;;;;;4.70;4.30;;;22.70;99.90;;;;;;4932412;29;20549;-82
2022/09/05 10:40:22;;;;;;;4.07;3.67;;;22.60;99.90;;;;;;4927034;29;20474;-82
2022/09/05 10:42:52;;;;;;;4.10;3.80;;;22.70;99.90;;;;;;4921870;29;20534;-80
2022/09/05 10:45:43;;;;;;;3.90;3.50;;;22.30;99.90;;;;;;4921300;29;20469;-81
2022/09/05 10:48:28;;;;;;;4.43;3.83;;;22.20;99.90;;;;;;4931010;29;20416;-81
2022/09/05 10:51:23;;;;;;;5.53;3.53;;;22.40;99.90;;;;;;4932412;29;20427;-85
2022/09/05 10:54:23;;;;;;;4.43;3.30;;;22.50;99.90;;;;;;4927296;29;20464;-82
2022/09/05 10:57:19;;;;;;;4.03;3.43;;;22.60;99.90;;;;;;4928837;29;20418;-82
2022/09/05 11:00:02;;;;;;;9.90;4.00;;;22.00;99.90;;;;;;4931752;29;20473;-83
2022/09/05 11:02:55;;;;;;;3.90;3.27;;;22.10;99.90;;;;;;4921262;29;20845;-85
2022/09/05 11:05:28;;;;;;;3.60;3.23;;;22.30;99.90;;;;;;4923836;29;20457;-82
2022/09/05 11:08:04;;;;;;;3.53;3.23;;;22.20;99.90;;;;;;4931056;29;20413;-82
2022/09/05 11:10:34;;;;;;;3.90;3.60;;;22.40;99.90;;;;;;4935300;29;20421;-83
2022/09/05 11:13:10;;;;;;;3.43;3.23;;;22.20;99.90;;;;;;4933283;29;20738;-82
2022/09/05 11:15:54;;;;;;;3.57;3.27;;;22.10;99.90;;;;;;4927928;29;20434;-83
2022/09/05 11:18:54;;;;;;;3.10;2.57;;;22.30;99.90;;;;;;4928806;29;20417;-79
2022/09/05 11:22:01;;;;;;;4.03;3.33;;;22.40;99.90;;;;;;4933352;29;20455;-83
2022/09/05 11:24:48;;;;;;;3.03;2.73;;;22.40;99.90;;;;;;4923223;29;20530;-79
2022/09/05 11:27:39;;;;;;;4.53;3.03;;;22.50;99.90;;;;;;4932931;29;20432;-84
2022/09/05 11:30:16;;;;;;;3.73;3.40;;;22.70;99.90;;;;;;4936348;29;20700;-82
2022/09/05 11:33:26;;;;;;;4.10;3.67;;;23.00;99.90;;;;;;4932053;29;20405;-79
2022/09/05 11:36:22;;;;;;;3.27;2.97;;;23.30;99.90;;;;;;4944388;29;20485;-80
2022/09/05 11:40:00;;;;;;;4.03;3.20;;;22.90;99.90;;;;;;4939571;29;20430;-81
2022/09/05 11:42:56;;;;;;;3.60;3.30;;;22.90;99.90;;;;;;4936552;29;20433;-81
2022/09/05 11:46:00;;;;;;;4.40;3.50;;;23.10;99.90;;;;;;4940298;29;20736;-80
2022/09/05 11:49:01;;;;;;;4.40;3.97;;;23.20;99.90;;;;;;4925562;29;20447;-84
2022/09/05 11:52:05;;;;;;;3.63;3.00;;;23.20;99.90;;;;;;4932340;29;20462;-82
2022/09/05 11:54:53;;;;;;;3.40;3.10;;;23.30;99.90;;;;;;4930463;29;20429;-81
2022/09/05 11:57:28;;;;;;;3.47;3.20;;;23.30;99.90;;;;;;4930481;29;20465;-83
2022/09/05 12:00:09;;;;;;;5.07;3.70;;;23.50;99.90;;;;;;4913414;29;20428;-87
2022/09/05 12:03:30;;;;;;;4.77;3.60;;;23.30;99.90;;;;;;4912403;29;20393;-82
2022/09/05 12:06:46;;;;;;;4.07;2.83;;;23.30;99.90;;;;;;4909896;29;20774;-82
2022/09/05 12:09:30;;;;;;;3.27;2.90;;;23.20;99.90;;;;;;4930243;29;20504;-82
2022/09/05 12:12:21;;;;;;;4.50;2.53;;;23.00;99.90;;;;;;4918011;29;20426;-82
2022/09/05 12:15:23;;;;;;;4.03;3.10;;;23.00;99.90;;;;;;4930183;29;20452;-88
2022/09/05 12:18:13;;;;;;;3.47;3.17;;;22.80;99.90;;;;;;4929509;29;20603;-82
2022/09/05 12:20:55;;;;;;;3.63;3.17;;;23.20;99.90;;;;;;4938044;29;20732;-84
2022/09/05 12:23:32;;;;;;;3.67;3.27;;;23.80;99.90;;;;;;4939825;29;20510;-86
2022/09/05 12:26:48;;;;;;;3.50;3.20;;;23.60;99.90;;;;;;4932489;29;20454;-86
2022/09/05 12:29:39;;;;;;;3.80;3.40;;;23.40;99.90;;;;;;4928800;29;20421;-82
2022/09/05 12:32:24;;;;;;;5.33;3.40;;;23.40;99.90;;;;;;4931482;29;20429;-87
2022/09/05 12:35:30;;;;;;;3.00;2.80;;;23.70;99.90;;;;;;4930654;29;20441;-85
2022/09/05 12:38:31;;;;;;;2.90;2.70;;;24.10;99.90;;;;;;4927813;29;20434;-82
2022/09/05 12:41:23;;;;;;;3.97;3.03;;;24.10;99.90;;;;;;4919192;29;20408;-80
2022/09/05 12:44:30;;;;;;;6.07;3.33;;;24.10;99.90;;;;;;4935300;29;20526;-82
2022/09/05 12:47:14;;;;;;;2.70;2.50;;;24.10;99.90;;;;;;4929757;29;20418;-83
2022/09/05 12:50:08;;;;;;;4.87;3.70;;;23.90;99.90;;;;;;4938283;29;20457;-84
2022/09/05 12:52:45;;;;;;;3.50;3.20;;;23.70;99.90;;;;;;4930088;29;20627;-81
2022/09/05 12:55:24;;;;;;;5.90;3.70;;;23.50;99.90;;;;;;4937233;29;20619;-85
2022/09/05 12:57:59;;;;;;;6.37;4.27;;;23.60;99.90;;;;;;4921848;29;20428;-84
2022/09/05 13:00:48;;;;;;;4.50;3.00;;;23.40;99.90;;;;;;4934477;29;20456;-85
2022/09/05 13:03:48;;;;;;;3.70;3.40;;;23.30;99.90;;;;;;4938232;29;20784;-85
2022/09/05 13:06:59;;;;;;;3.90;3.53;;;23.10;99.90;;;;;;4930519;29;20446;-82
2022/09/05 13:09:36;;;;;;;3.93;3.63;;;23.00;99.90;;;;;;4931139;29;20440;-82
2022/09/05 13:12:36;;;;;;;4.00;3.40;;;23.20;99.90;;;;;;4939209;29;20805;-87
2022/09/05 13:15:34;;;;;;;4.80;3.17;;;23.60;99.90;;;;;;4934396;29;20453;-87
2022/09/05 13:18:24;;;;;;;3.53;3.23;;;24.30;99.90;;;;;;4936149;29;20649;-84
2022/09/05 13:21:04;;;;;;;8.10;3.57;;;24.70;99.90;;;;;;4927539;29;20418;-81
2022/09/05 13:23:43;;;;;;;4.03;2.80;;;24.80;99.90;;;;;;4932322;29;20466;-83
2022/09/05 13:26:32;;;;;;;3.90;3.60;;;24.40;99.90;;;;;;4932124;29;20528;-83
2022/09/05 13:29:26;;;;;;;4.00;3.60;;;24.00;99.90;;;;;;4920857;29;20446;-83
2022/09/05 13:32:37;;;;;;;3.40;3.10;;;24.00;99.90;;;;;;4929491;29;20645;-86
2022/09/05 13:35:31;;;;;;;3.90;3.03;;;23.90;99.90;;;;;;4871421;29;20424;-82
2022/09/05 13:38:26;;;;;;;5.70;4.10;;;23.60;99.90;;;;;;4930101;29;20435;-80
2022/09/05 13:41:21;;;;;;;3.20;2.90;;;23.80;99.90;;;;;;4923465;29;20689;-80
2022/09/05 13:43:55;;;;;;;3.73;3.43;;;23.40;99.90;;;;;;4931374;29;20438;-85
2022/09/05 13:47:08;;;;;;;3.43;3.20;;;23.40;99.90;;;;;;4934501;29;20437;-83
2022/09/05 13:50:18;;;;;;;4.53;3.87;;;23.50;99.90;;;;;;4931322;29;20413;-84
2022/09/05 13:52:58;;;;;;;4.23;3.60;;;23.40;99.90;;;;;;4923931;29;20438;-86
2022/09/05 13:55:39;;;;;;;3.63;3.33;;;23.40;99.90;;;;;;4923704;29;20430;-81
2022/09/05 13:58:21;;;;;;;6.13;3.40;;;23.40;99.90;;;;;;4930387;29;20436;-84
2022/09/05 14:01:07;;;;;;;5.57;4.20;;;23.00;99.90;;;;;;4923929;29;20512;-80
2022/09/05 14:04:04;;;;;;;4.20;3.47;;;22.60;99.90;;;;;;4927517;29;20420;-84
2022/09/05 14:06:50;;;;;;;2.83;2.63;;;22.40;99.90;;;;;;4925028;29;20487;-83
2022/09/05 14:09:48;;;;;;;2.60;2.40;;;22.20;99.90;;;;;;4927861;29;20425;-85
2022/09/05 14:12:37;;;;;;;4.13;3.00;;;22.20;99.90;;;;;;4924927;29;20442;-87
2022/09/05 14:15:26;;;;;;;3.20;3.00;;;22.20;99.90;;;;;;4922216;29;20568;-85
2022/09/05 14:18:19;;;;;;;2.93;2.73;;;22.30;99.90;;;;;;4923133;29;20504;-85
2022/09/05 14:21:20;;;;;;;2.90;2.70;;;22.50;99.90;;;;;;4920116;29;20451;-79
2022/09/05 14:24:10;;;;;;;3.87;3.00;;;22.40;99.90;;;;;;4922296;29;20784;-83
2022/09/05 14:26:57;;;;;;;3.87;3.57;;;22.30;99.90;;;;;;4927010;29;20465;-86
2022/09/05 14:29:39;;;;;;;3.90;3.37;;;22.20;99.90;;;;;;4924114;29;20464;-85
2022/09/05 14:32:13;;;;;;;3.70;3.20;;;22.30;99.90;;;;;;4913958;29;20631;-81
2022/09/05 14:35:26;;;;;;;3.20;2.90;;;22.30;99.90;;;;;;4925259;29;20434;-85
2022/09/05 14:38:37;;;;;;;3.00;2.80;;;22.20;99.90;;;;;;4925247;29;20404;-85
2022/09/05 14:41:25;;;;;;;3.40;3.20;;;22.30;99.90;;;;;;4919667;29;20665;-89
2022/09/05 14:44:32;;;;;;;2.90;2.70;;;22.50;99.90;;;;;;4929777;29;20470;-83
2022/09/05 14:47:09;;;;;;;2.47;2.27;;;22.70;99.90;;;;;;4950151;29;20438;-82
2022/09/05 14:50:33;;;;;;;3.30;3.10;;;22.80;99.90;;;;;;4944910;29;20428;-81
2022/09/05 14:53:12;;;;;;;3.77;2.93;;;22.70;99.90;;;;;;4942602;29;20453;-79